Morrison, IA (50657)

12:05 PM CDT on July 30, 2016 (GMT -0500)
Holland | | Change Station

Elev 1033 ft 42.40 °N, 92.80 °W | Updated 14 minutes ago

Overcast
Overcast
74.7 °F
Feels Like 76 °F
N
0.0
Wind Variable Wind from East

Today
High -- | Low -- °F
--% Chance of Precip.
Yesterday
High -- | Low -- °F
Precip. -- in
Pressure 30.02 in
Visibility 10.0 miles
Clouds Mostly Cloudy 1800 ft
Mostly Cloudy 4700 ft
Overcast 7500 ft
Heat Index 76 °F
Dew Point 66 °F
Humidity 75%
Rainfall 0.00 in
Snow Depth Not available.
6:02 AM 8:32 PM
Waning Crescent, 12% visible
METAR KMIW 301653Z AUTO 32003KT 10SM BKN018 BKN047 OVC075 23/19 A3003 RMK AO2 SLP164 T02280194
Pressure 30.02 in
Visibility 10.0 miles
Clouds Mostly Cloudy 1800 ft
Mostly Cloudy 4700 ft
Overcast 7500 ft
Heat Index 76 °F
Dew Point 66 °F
Humidity 75%
Rainfall 0.00 in
Snow Depth Not available.
6:02 AM 8:32 PM
Waning Crescent, 12% visible
METAR KMIW 301653Z AUTO 32003KT 10SM BKN018 BKN047 OVC075 23/19 A3003 RMK AO2 SLP164 T02280194

10-Day Weather Forecast

Almanac

Astronomy

Jul. 30, 2016 Rise Set
Actual Time
Civil Twilight
Nautical Twilight
Astronomical Twilight
Moon
Length of Visible Light
Length of Day
Tomorrow will be .
, % of the Moon is Illuminated

Today's Extremes

State Highs State Lows

Community

WunderPhotos

Upload Photos

1,928,598 photos uploaded!

WunderBlog® & News

Nearby

Air Quality

  Air Quality AQ Index Pollutant
Not available.

Snow Depth

Station Depth Elevation

Earthquake Activity

City Distance Mag. Time & Date
Minimum magnitude displayed is 2.5.

Coastal Water Temperatures

Place Temperature

Stations

Nearby Weather Stations

Station Location Temp. Windchill Dew Point Humidity Wind Precip. Elev Updated Type
                   

Watches & Warnings

There are currently no watches in effect.